createdAt,value
2018-03-25T00:00:34.570Z,5.99
2018-03-25T00:03:03.674Z,6.00
2018-03-25T00:05:32.022Z,5.94
2018-03-25T00:08:00.359Z,5.96
2018-03-25T00:10:28.690Z,6.02
2018-03-25T00:12:57.062Z,6.04
2018-03-25T00:15:25.383Z,6.06
2018-03-25T00:17:54.491Z,6.11
2018-03-25T00:20:23.585Z,6.03
2018-03-25T00:22:51.929Z,5.99
2018-03-25T00:25:20.279Z,5.91
2018-03-25T00:27:48.645Z,5.93
2018-03-25T00:30:17.768Z,5.96
2018-03-25T00:32:46.101Z,5.97
2018-03-25T00:35:15.225Z,5.96
2018-03-25T00:37:43.555Z,5.92
2018-03-25T00:40:11.897Z,5.84
2018-03-25T00:42:40.247Z,5.85
2018-03-25T00:45:08.588Z,5.87
2018-03-25T00:47:36.944Z,5.85
2018-03-25T00:50:05.267Z,5.86
2018-03-25T00:52:33.589Z,5.78
2018-03-25T00:55:02.691Z,5.69
2018-03-25T00:57:31.812Z,5.64
2018-03-25T01:00:00.893Z,5.59
2018-03-25T01:02:30.021Z,5.53
2018-03-25T01:04:58.369Z,5.47
2018-03-25T01:07:27.461Z,5.44
2018-03-25T01:09:56.579Z,5.55
2018-03-25T01:12:25.679Z,5.61
2018-03-25T01:14:54.796Z,5.67
2018-03-25T01:17:23.134Z,5.68
2018-03-25T01:19:52.243Z,5.68
2018-03-25T01:22:20.568Z,5.63
2018-03-25T01:24:48.935Z,5.63
2018-03-25T01:27:17.285Z,5.62
2018-03-25T01:29:46.377Z,5.52
2018-03-25T01:32:14.722Z,5.47
2018-03-25T01:34:43.125Z,5.48
2018-03-25T01:37:11.463Z,5.46
2018-03-25T01:39:39.871Z,5.35
2018-03-25T01:42:08.225Z,5.23
2018-03-25T01:44:37.300Z,5.16
2018-03-25T01:47:05.641Z,5.19
2018-03-25T01:49:34.000Z,5.17
2018-03-25T01:52:02.333Z,5.12
2018-03-25T01:54:30.684Z,5.07
2018-03-25T01:56:59.018Z,5.03
2018-03-25T01:59:27.351Z,5.11
2018-03-25T02:01:56.491Z,5.09
2018-03-25T02:04:25.621Z,5.09
2018-03-25T02:06:54.705Z,5.04
2018-03-25T02:09:23.809Z,5.01
2018-03-25T02:11:52.921Z,4.94
2018-03-25T02:14:22.005Z,4.93
2018-03-25T02:16:51.145Z,4.96
2018-03-25T02:19:19.529Z,4.96
2018-03-25T02:21:47.863Z,4.95
2018-03-25T02:24:16.241Z,4.95
2018-03-25T02:26:44.596Z,4.99
2018-03-25T02:29:12.962Z,4.99
2018-03-25T02:31:41.341Z,5.00
2018-03-25T02:34:09.724Z,5.00
2018-03-25T02:36:38.113Z,5.01
2018-03-25T02:39:06.468Z,5.06
2018-03-25T02:41:35.576Z,5.13
2018-03-25T02:44:03.900Z,5.19
2018-03-25T02:49:06.750Z,5.29
2018-03-25T02:51:35.883Z,5.30
2018-03-25T02:54:04.230Z,5.36
2018-03-25T02:56:33.423Z,5.37
2018-03-25T02:59:01.740Z,5.34
2018-03-25T03:01:30.080Z,5.31
2018-03-25T03:03:58.430Z,5.32
2018-03-25T03:06:26.745Z,5.34
2018-03-25T03:08:55.117Z,5.33
2018-03-25T03:11:23.452Z,5.31
2018-03-25T03:13:51.753Z,5.27
2018-03-25T03:16:20.069Z,5.23
2018-03-25T03:18:48.467Z,5.17
2018-03-25T03:21:16.829Z,5.13
2018-03-25T03:23:45.188Z,5.12
2018-03-25T03:26:13.530Z,5.07
2018-03-25T03:28:41.879Z,5.00
2018-03-25T03:31:10.226Z,4.92
2018-03-25T03:33:38.572Z,4.83
2018-03-25T03:36:07.641Z,4.79
2018-03-25T03:38:36.789Z,4.78
2018-03-25T03:41:05.105Z,4.84
2018-03-25T03:43:33.459Z,4.83
2018-03-25T03:46:01.782Z,4.82
2018-03-25T03:48:30.143Z,4.84
2018-03-25T03:50:58.507Z,4.81
2018-03-25T03:53:26.841Z,4.82
2018-03-25T03:55:55.165Z,4.88
2018-03-25T03:58:23.573Z,4.94
2018-03-25T04:00:51.932Z,5.03
2018-03-25T04:03:20.257Z,5.06
2018-03-25T04:05:48.591Z,5.06
2018-03-25T04:08:17.710Z,5.04
2018-03-25T04:10:46.097Z,5.03
2018-03-25T04:13:14.477Z,5.00
2018-03-25T04:15:42.849Z,4.92
2018-03-25T04:18:11.261Z,4.88
2018-03-25T04:20:39.591Z,4.87
2018-03-25T04:23:07.913Z,4.82
2018-03-25T04:25:36.261Z,4.81
2018-03-25T04:28:04.727Z,4.80
2018-03-25T04:30:33.058Z,4.70
2018-03-25T04:33:01.393Z,4.60
2018-03-25T04:35:29.738Z,4.50
2018-03-25T04:37:58.081Z,4.49
2018-03-25T04:40:27.200Z,4.56
2018-03-25T04:42:55.543Z,4.56
2018-03-25T04:45:24.669Z,4.54
2018-03-25T04:47:53.059Z,4.51
2018-03-25T04:50:21.444Z,4.46
2018-03-25T04:52:51.069Z,4.45
2018-03-25T04:55:19.411Z,4.41
2018-03-25T04:57:47.737Z,4.40
2018-03-25T05:00:16.043Z,4.39
2018-03-25T05:02:44.382Z,4.31
2018-03-25T05:05:13.478Z,4.21
2018-03-25T05:07:41.856Z,4.16
2018-03-25T05:10:10.951Z,4.13
2018-03-25T05:12:40.049Z,4.14
2018-03-25T05:15:09.157Z,4.14
2018-03-25T05:17:38.263Z,4.17
2018-03-25T05:20:07.373Z,4.16
2018-03-25T05:22:35.698Z,4.17
2018-03-25T05:25:04.801Z,4.20
2018-03-25T05:27:33.127Z,4.22
2018-03-25T05:30:02.239Z,4.22
2018-03-25T05:32:30.573Z,4.25
2018-03-25T05:34:58.891Z,4.26
2018-03-25T05:37:27.990Z,4.31
2018-03-25T05:39:57.084Z,4.38
2018-03-25T05:42:26.189Z,4.45
2018-03-25T05:44:55.304Z,4.53
2018-03-25T05:47:23.700Z,4.63
2018-03-25T05:49:52.037Z,4.71
2018-03-25T05:52:20.466Z,4.86
2018-03-25T05:54:48.859Z,5.01
2018-03-25T05:57:17.239Z,5.17
2018-03-25T05:59:45.558Z,5.38
2018-03-25T06:02:13.869Z,5.55
2018-03-25T06:04:42.967Z,5.74
2018-03-25T06:07:12.109Z,5.92
2018-03-25T06:09:40.431Z,6.10
2018-03-25T06:12:08.759Z,6.33
2018-03-25T06:14:37.101Z,6.51
2018-03-25T06:17:05.434Z,6.66
2018-03-25T06:19:33.775Z,6.81
2018-03-25T06:22:02.881Z,6.97
2018-03-25T06:24:31.976Z,7.11
2018-03-25T06:27:01.069Z,7.25
2018-03-25T06:29:29.459Z,7.40
2018-03-25T06:31:57.805Z,7.58
2018-03-25T06:34:26.138Z,7.78
2018-03-25T06:36:55.357Z,8.01
2018-03-25T06:39:23.664Z,8.18
2018-03-25T06:41:51.994Z,8.36
2018-03-25T06:44:21.116Z,8.55
2018-03-25T06:46:49.441Z,8.70
2018-03-25T06:49:17.775Z,8.87
2018-03-25T06:51:46.078Z,8.99
2018-03-25T06:54:14.514Z,9.10
2018-03-25T06:56:42.805Z,9.26
2018-03-25T06:59:12.023Z,9.44
2018-03-25T07:01:40.341Z,9.65
2018-03-25T07:04:08.667Z,9.81
2018-03-25T07:06:36.988Z,10.01
2018-03-25T07:09:05.314Z,10.22
2018-03-25T07:11:33.655Z,10.42
2018-03-25T07:14:01.966Z,10.55
2018-03-25T07:16:30.293Z,10.75
2018-03-25T07:18:59.409Z,10.87
2018-03-25T07:21:27.739Z,10.90
2018-03-25T07:23:56.094Z,10.94
2018-03-25T07:26:24.447Z,11.12
2018-03-25T07:28:52.795Z,11.27
2018-03-25T07:31:21.097Z,11.43
2018-03-25T07:33:50.171Z,11.65
2018-03-25T07:36:18.488Z,11.92
2018-03-25T07:38:47.594Z,12.22
2018-03-25T07:41:15.952Z,12.51
2018-03-25T07:43:44.534Z,12.78
2018-03-25T07:46:12.846Z,13.06
2018-03-25T07:48:41.929Z,13.36
2018-03-25T07:51:10.298Z,13.65
2018-03-25T07:53:38.666Z,13.94
2018-03-25T07:56:06.988Z,14.21
2018-03-25T07:58:36.096Z,14.48
2018-03-25T08:01:04.430Z,14.73
2018-03-25T08:03:32.745Z,14.93
2018-03-25T08:06:01.824Z,15.11
2018-03-25T08:08:30.147Z,15.34
2018-03-25T08:10:58.464Z,15.57
2018-03-25T08:13:27.058Z,15.63
2018-03-25T08:15:55.355Z,15.79
2018-03-25T08:18:23.674Z,15.97
2018-03-25T08:20:52.002Z,16.15
2018-03-25T08:23:20.366Z,16.29
2018-03-25T08:25:48.688Z,16.42
2018-03-25T08:28:17.008Z,16.51
2018-03-25T08:30:45.348Z,16.47
2018-03-25T08:33:13.686Z,16.54
2018-03-25T08:35:42.046Z,16.63
2018-03-25T08:38:11.125Z,16.88
2018-03-25T08:40:40.216Z,17.01
2018-03-25T08:43:08.528Z,17.12
2018-03-25T08:45:37.614Z,17.31
2018-03-25T08:48:05.950Z,17.50
2018-03-25T08:50:34.270Z,17.68
2018-03-25T08:53:02.591Z,17.88
2018-03-25T08:55:30.922Z,18.17
2018-03-25T08:57:59.237Z,18.42
2018-03-25T09:00:28.328Z,18.63
2018-03-25T09:02:57.404Z,18.67
2018-03-25T09:05:25.708Z,18.75
2018-03-25T09:07:54.794Z,18.72
2018-03-25T09:10:23.860Z,18.91
2018-03-25T09:12:52.178Z,19.18
2018-03-25T09:15:20.506Z,19.40
2018-03-25T09:17:48.812Z,19.47
2018-03-25T09:20:17.134Z,19.53
2018-03-25T09:22:45.466Z,19.62
2018-03-25T09:25:14.478Z,19.76
2018-03-25T09:27:42.816Z,19.86
2018-03-25T09:30:11.152Z,20.12
2018-03-25T09:32:39.510Z,20.40
2018-03-25T09:35:07.842Z,20.58
2018-03-25T09:37:36.230Z,20.72
2018-03-25T09:40:05.408Z,20.95
2018-03-25T09:42:33.738Z,21.11
2018-03-25T09:45:02.172Z,21.16
2018-03-25T09:47:30.506Z,21.12
2018-03-25T09:49:58.852Z,21.08
2018-03-25T09:52:27.170Z,21.10
2018-03-25T09:54:55.481Z,21.05
2018-03-25T09:57:23.796Z,21.04
2018-03-25T09:59:52.124Z,20.81
2018-03-25T10:02:25.927Z,20.71
2018-03-25T10:04:54.291Z,20.88
2018-03-25T10:07:24.366Z,21.05
2018-03-25T10:09:52.695Z,21.16
2018-03-25T10:12:21.818Z,21.24
2018-03-25T10:14:50.185Z,21.32
2018-03-25T10:17:18.668Z,21.38
2018-03-25T10:19:47.086Z,21.40
2018-03-25T10:22:15.479Z,21.51
2018-03-25T10:24:43.851Z,21.49
2018-03-25T10:27:13.026Z,21.24
2018-03-25T10:29:41.354Z,21.17
2018-03-25T10:32:09.744Z,21.39
2018-03-25T10:34:38.127Z,21.48
2018-03-25T10:37:06.577Z,21.68
2018-03-25T10:39:34.928Z,21.94
2018-03-25T10:42:04.032Z,22.15
2018-03-25T10:44:33.113Z,22.30
2018-03-25T10:47:01.449Z,22.22
2018-03-25T10:49:29.821Z,22.45
2018-03-25T10:51:58.127Z,22.76
2018-03-25T10:54:26.457Z,23.03
2018-03-25T10:56:55.575Z,23.06
2018-03-25T10:59:23.922Z,23.29
2018-03-25T11:01:53.051Z,23.53
2018-03-25T11:04:22.150Z,23.84
2018-03-25T11:06:50.478Z,24.01
2018-03-25T11:09:18.833Z,24.01
2018-03-25T11:11:47.181Z,24.16
2018-03-25T11:14:15.493Z,24.26
2018-03-25T11:16:43.900Z,24.41
2018-03-25T11:19:12.221Z,24.13
2018-03-25T11:21:40.535Z,23.88
2018-03-25T11:24:08.884Z,24.14
2018-03-25T11:26:37.219Z,24.36
2018-03-25T11:29:05.527Z,24.53
2018-03-25T11:31:33.851Z,24.56
2018-03-25T11:34:02.265Z,24.55
2018-03-25T11:36:30.595Z,24.36
2018-03-25T11:38:58.931Z,24.17
2018-03-25T11:41:27.237Z,24.20
2018-03-25T11:43:55.596Z,24.09
2018-03-25T11:46:23.939Z,24.10
2018-03-25T11:48:53.045Z,24.06
2018-03-25T11:51:22.865Z,23.91
2018-03-25T11:53:51.971Z,24.13
2018-03-25T11:56:20.311Z,24.13
2018-03-25T11:58:48.620Z,24.41
2018-03-25T12:01:16.940Z,24.72
2018-03-25T12:03:45.255Z,24.94
2018-03-25T12:06:13.602Z,25.08
2018-03-25T12:08:41.975Z,25.13
2018-03-25T12:11:10.392Z,25.28
2018-03-25T12:13:38.646Z,25.48
2018-03-25T12:16:07.007Z,25.62
2018-03-25T12:18:36.094Z,25.73
2018-03-25T12:21:05.206Z,25.40
2018-03-25T12:23:33.528Z,25.44
2018-03-25T12:26:01.873Z,25.54
2018-03-25T12:28:30.957Z,25.66
2018-03-25T12:30:59.275Z,25.68
2018-03-25T12:33:27.579Z,25.57
2018-03-25T12:35:55.885Z,25.70
2018-03-25T12:38:24.210Z,25.75
2018-03-25T12:40:53.201Z,25.63
2018-03-25T12:43:22.293Z,25.42
2018-03-25T12:45:51.395Z,24.97
2018-03-25T12:48:20.481Z,25.19
2018-03-25T12:50:48.807Z,25.49
2018-03-25T12:53:17.214Z,25.78
2018-03-25T12:55:45.527Z,26.17
2018-03-25T12:58:13.857Z,26.49
2018-03-25T13:00:42.169Z,26.58
2018-03-25T13:03:10.494Z,26.57
2018-03-25T13:05:39.558Z,26.57
2018-03-25T13:08:07.885Z,26.81
2018-03-25T13:10:37.083Z,26.63
2018-03-25T13:13:05.421Z,26.46
2018-03-25T13:15:34.509Z,26.05
2018-03-25T13:18:02.833Z,26.03
2018-03-25T13:20:31.928Z,26.13
2018-03-25T13:23:01.033Z,26.46
2018-03-25T13:25:30.141Z,26.81
2018-03-25T13:27:59.238Z,27.24
2018-03-25T13:30:28.339Z,27.79
2018-03-25T13:32:57.469Z,27.86
2018-03-25T13:35:25.852Z,27.99
2018-03-25T13:37:54.179Z,28.31
2018-03-25T13:40:22.489Z,28.57
2018-03-25T13:42:51.571Z,28.64
2018-03-25T13:45:20.680Z,28.83
2018-03-25T13:47:49.775Z,29.58
2018-03-25T13:50:18.859Z,30.58
2018-03-25T13:52:47.190Z,31.28
2018-03-25T13:55:15.519Z,31.74
2018-03-25T13:57:43.845Z,31.90
2018-03-25T14:00:12.240Z,32.06
2018-03-25T14:02:40.565Z,32.45
2018-03-25T14:05:08.883Z,32.74
2018-03-25T14:07:37.974Z,33.22
2018-03-25T14:10:07.049Z,32.80
2018-03-25T14:12:35.363Z,33.14
2018-03-25T14:15:04.463Z,32.97
2018-03-25T14:17:33.566Z,32.36
2018-03-25T14:20:02.705Z,32.53
2018-03-25T14:22:31.019Z,32.77
2018-03-25T14:24:59.385Z,32.94
2018-03-25T14:27:27.716Z,32.07
2018-03-25T14:29:56.799Z,30.91
2018-03-25T14:32:25.134Z,29.92
2018-03-25T14:34:53.441Z,29.10
2018-03-25T14:37:21.790Z,28.90
2018-03-25T14:39:50.116Z,28.79
2018-03-25T14:42:18.451Z,28.04
2018-03-25T14:44:46.784Z,27.27
2018-03-25T14:47:15.121Z,26.48
2018-03-25T14:49:43.435Z,25.94
2018-03-25T14:52:11.782Z,25.63
2018-03-25T14:54:40.176Z,25.34
2018-03-25T14:57:08.504Z,25.16
2018-03-25T14:59:37.595Z,24.61
2018-03-25T15:02:05.941Z,23.98
2018-03-25T15:04:35.157Z,23.48
2018-03-25T15:07:03.474Z,23.22
2018-03-25T15:09:32.562Z,23.06
2018-03-25T15:12:00.971Z,22.64
2018-03-25T15:14:30.067Z,22.42
2018-03-25T15:16:59.164Z,22.06
2018-03-25T15:19:28.278Z,21.74
2018-03-25T15:21:56.644Z,21.14
2018-03-25T15:24:25.740Z,20.90
2018-03-25T15:26:54.875Z,20.57
2018-03-25T15:29:23.236Z,20.27
2018-03-25T15:31:52.381Z,20.08
2018-03-25T15:34:21.561Z,19.99
2018-03-25T15:36:49.951Z,20.04
2018-03-25T15:39:18.270Z,20.02
2018-03-25T15:41:46.583Z,19.73
2018-03-25T15:44:15.696Z,19.45
2018-03-25T15:46:44.015Z,19.18
2018-03-25T15:49:12.322Z,18.88
2018-03-25T15:51:40.637Z,18.60
2018-03-25T15:54:08.974Z,18.29
2018-03-25T15:56:37.524Z,18.10
2018-03-25T15:59:06.058Z,18.03
2018-03-25T16:01:35.267Z,17.99
2018-03-25T16:04:04.352Z,17.91
2018-03-25T16:06:32.687Z,17.82
2018-03-25T16:09:01.019Z,17.72
2018-03-25T16:11:29.419Z,17.49
2018-03-25T16:13:58.728Z,17.35
2018-03-25T16:16:27.081Z,17.38
2018-03-25T16:18:55.434Z,17.42
2018-03-25T16:21:23.757Z,17.39
2018-03-25T16:23:52.067Z,17.24
2018-03-25T16:26:21.266Z,17.01
2018-03-25T16:28:49.836Z,16.66
2018-03-25T16:31:19.031Z,16.38
2018-03-25T16:33:47.808Z,16.16
2018-03-25T16:36:16.132Z,15.97
2018-03-25T16:38:45.236Z,15.70
2018-03-25T16:41:14.531Z,15.45
2018-03-25T16:43:42.870Z,15.28
2018-03-25T16:46:11.409Z,15.18
2018-03-25T16:48:39.970Z,15.17
2018-03-25T16:51:09.077Z,15.19
2018-03-25T16:53:37.603Z,15.15
2018-03-25T16:56:05.990Z,15.05
2018-03-25T16:58:34.513Z,14.95
2018-03-25T17:01:03.701Z,14.74
2018-03-25T17:03:32.039Z,14.60
2018-03-25T17:06:01.134Z,14.52
2018-03-25T17:08:30.374Z,14.48
2018-03-25T17:10:58.720Z,14.53
2018-03-25T17:13:27.875Z,14.61
2018-03-25T17:15:56.229Z,14.73
2018-03-25T17:18:24.559Z,14.89
2018-03-25T17:20:52.874Z,15.10
2018-03-25T17:23:22.025Z,15.05
2018-03-25T17:25:50.406Z,14.97
2018-03-25T17:28:18.734Z,14.85
2018-03-25T17:30:47.055Z,14.65
2018-03-25T17:33:15.451Z,14.30
2018-03-25T17:35:43.790Z,13.89
2018-03-25T17:38:12.120Z,13.46
2018-03-25T17:40:40.477Z,13.05
2018-03-25T17:43:08.787Z,12.67
2018-03-25T17:45:37.207Z,12.32
2018-03-25T17:48:05.538Z,11.99
2018-03-25T17:50:33.908Z,11.68
2018-03-25T17:53:02.275Z,11.44
2018-03-25T17:55:31.354Z,11.13
2018-03-25T17:57:59.668Z,10.91
2018-03-25T18:00:27.984Z,10.73
2018-03-25T18:02:56.300Z,10.59
2018-03-25T18:05:25.421Z,10.44
2018-03-25T18:07:54.213Z,10.24
2018-03-25T18:10:23.303Z,10.11
2018-03-25T18:12:52.401Z,9.99
2018-03-25T18:15:21.495Z,9.94
2018-03-25T18:17:50.588Z,9.89
2018-03-25T18:20:18.911Z,9.76
2018-03-25T18:22:47.207Z,9.64
2018-03-25T18:25:15.514Z,9.54
2018-03-25T18:27:43.959Z,9.45
2018-03-25T18:30:12.291Z,9.37
2018-03-25T18:32:40.848Z,9.32
2018-03-25T18:35:09.188Z,9.24
2018-03-25T18:37:38.247Z,9.15
2018-03-25T18:40:06.568Z,9.06
2018-03-25T18:42:35.728Z,8.99
2018-03-25T18:45:04.103Z,8.95
2018-03-25T18:47:32.530Z,8.88
2018-03-25T18:50:00.909Z,8.91
2018-03-25T18:52:29.341Z,8.81
2018-03-25T18:54:57.698Z,8.73
2018-03-25T18:57:26.063Z,8.65
2018-03-25T18:59:54.442Z,8.58
2018-03-25T19:02:22.760Z,8.63
2018-03-25T19:04:51.081Z,8.48
2018-03-25T19:07:19.517Z,8.37
2018-03-25T19:09:47.935Z,8.30
2018-03-25T19:12:16.273Z,8.30
2018-03-25T19:14:44.609Z,8.23
2018-03-25T19:17:13.203Z,8.18
2018-03-25T19:19:42.577Z,8.16
2018-03-25T19:22:10.957Z,8.12
2018-03-25T19:24:39.528Z,8.06
2018-03-25T19:27:08.201Z,7.99
2018-03-25T19:29:36.604Z,7.92
2018-03-25T19:32:05.210Z,7.86
2018-03-25T19:34:33.621Z,7.82
2018-03-25T19:37:01.941Z,7.78
2018-03-25T19:39:31.132Z,7.71
2018-03-25T19:41:59.687Z,7.66
2018-03-25T19:44:28.331Z,7.62
2018-03-25T19:46:56.752Z,7.57
2018-03-25T19:49:25.141Z,7.56
2018-03-25T19:51:53.526Z,7.52
2018-03-25T19:54:25.485Z,7.49
2018-03-25T19:56:55.236Z,7.47
2018-03-25T19:59:24.444Z,7.44
2018-03-25T20:01:54.680Z,7.40
2018-03-25T20:04:26.393Z,7.35
2018-03-25T20:06:54.709Z,7.27
2018-03-25T20:09:23.811Z,7.25
2018-03-25T20:11:52.933Z,7.21
2018-03-25T20:14:22.130Z,7.19
2018-03-25T20:16:50.466Z,7.13
2018-03-25T20:19:18.799Z,7.10
2018-03-25T20:21:48.213Z,7.06
2018-03-25T20:24:17.284Z,7.05
2018-03-25T20:26:45.613Z,7.06
2018-03-25T20:29:13.996Z,7.04
2018-03-25T20:31:42.382Z,7.04
2018-03-25T20:34:10.762Z,7.10
2018-03-25T20:36:39.099Z,7.18
2018-03-25T20:39:07.416Z,7.22
2018-03-25T20:41:35.746Z,7.27
2018-03-25T20:44:04.083Z,7.31
2018-03-25T20:46:32.408Z,7.35
2018-03-25T20:49:00.751Z,7.36
2018-03-25T20:51:29.099Z,7.34
2018-03-25T20:53:58.186Z,7.32
2018-03-25T20:56:26.502Z,7.31
2018-03-25T20:58:54.825Z,7.29
2018-03-25T21:01:23.157Z,7.25
2018-03-25T21:03:52.234Z,7.21
2018-03-25T21:06:20.544Z,7.17
2018-03-25T21:08:49.645Z,7.15
2018-03-25T21:11:18.794Z,7.12
2018-03-25T21:13:47.867Z,6.98
2018-03-25T21:16:16.188Z,6.88
2018-03-25T21:18:44.510Z,6.75
2018-03-25T21:21:12.823Z,6.64
2018-03-25T21:23:41.161Z,6.58
2018-03-25T21:26:10.250Z,6.44
2018-03-25T21:28:38.566Z,6.35
2018-03-25T21:31:06.879Z,6.26
2018-03-25T21:33:35.225Z,6.17
2018-03-25T21:36:03.544Z,6.10
2018-03-25T21:38:31.861Z,6.06
2018-03-25T21:41:00.944Z,6.05
2018-03-25T21:43:29.240Z,5.99
2018-03-25T21:45:57.570Z,5.95
2018-03-25T21:48:25.878Z,5.96
2018-03-25T21:50:54.190Z,5.95
2018-03-25T21:53:22.514Z,5.95
2018-03-25T21:55:50.890Z,5.92
2018-03-25T21:58:19.216Z,5.90
2018-03-25T22:00:47.554Z,5.89
2018-03-25T22:03:15.864Z,5.85
2018-03-25T22:05:44.202Z,5.83
2018-03-25T22:08:13.280Z,5.79
2018-03-25T22:10:41.582Z,5.79
2018-03-25T22:13:10.656Z,5.79
2018-03-25T22:15:39.002Z,5.75
2018-03-25T22:18:08.093Z,5.71
2018-03-25T22:20:36.408Z,5.68
2018-03-25T22:23:04.744Z,5.64
2018-03-25T22:25:33.074Z,5.66
2018-03-25T22:28:01.388Z,5.65
2018-03-25T22:30:30.467Z,5.67
2018-03-25T22:32:58.781Z,5.70
2018-03-25T22:35:27.102Z,5.70
2018-03-25T22:37:55.414Z,5.71
2018-03-25T22:40:23.736Z,5.72
2018-03-25T22:42:52.038Z,5.71
2018-03-25T22:45:20.363Z,5.72
2018-03-25T22:47:48.676Z,5.69
2018-03-25T22:50:16.983Z,5.66
2018-03-25T22:52:45.286Z,5.66
2018-03-25T22:55:13.652Z,5.66
2018-03-25T22:57:41.964Z,5.63
2018-03-25T23:00:10.360Z,5.62
2018-03-25T23:02:38.685Z,5.63
2018-03-25T23:05:07.016Z,5.63
2018-03-25T23:07:35.312Z,5.63
2018-03-25T23:10:04.402Z,5.61
2018-03-25T23:12:32.719Z,5.63
2018-03-25T23:15:01.020Z,5.62
2018-03-25T23:17:29.323Z,5.61
2018-03-25T23:19:57.767Z,5.61
2018-03-25T23:22:26.089Z,5.59
2018-03-25T23:24:54.411Z,5.58
2018-03-25T23:27:23.479Z,5.58
2018-03-25T23:29:51.792Z,5.55
2018-03-25T23:32:21.031Z,5.50
2018-03-25T23:34:49.345Z,5.48
2018-03-25T23:37:17.671Z,5.42
2018-03-25T23:39:46.745Z,5.34
2018-03-25T23:42:15.057Z,5.37
2018-03-25T23:44:43.373Z,5.39
2018-03-25T23:47:11.691Z,5.41
2018-03-25T23:49:40.005Z,5.43
2018-03-25T23:52:08.337Z,5.42
2018-03-25T23:54:36.642Z,5.44
2018-03-25T23:57:05.716Z,5.46
2018-03-25T23:59:34.033Z,5.47
